sensor_id;sensor_type;location;lat;lon;timestamp;P1;durP1;ratioP1;P2;durP2;ratioP2
37907;SDS011;23740;51.550;6.846;2022-08-05T00:00:14;8.55;;;4.22;;
37907;SDS011;23740;51.550;6.846;2022-08-05T00:02:40;7.03;;;3.90;;
37907;SDS011;23740;51.550;6.846;2022-08-05T00:05:06;10.50;;;4.60;;
37907;SDS011;23740;51.550;6.846;2022-08-05T00:07:31;10.98;;;4.35;;
37907;SDS011;23740;51.550;6.846;2022-08-05T00:09:57;6.03;;;3.70;;
37907;SDS011;23740;51.550;6.846;2022-08-05T00:12:22;9.75;;;4.20;;
37907;SDS011;23740;51.550;6.846;2022-08-05T00:14:48;5.00;;;3.65;;
37907;SDS011;23740;51.550;6.846;2022-08-05T00:17:13;8.32;;;4.20;;
37907;SDS011;23740;51.550;6.846;2022-08-05T00:19:39;6.82;;;4.35;;
37907;SDS011;23740;51.550;6.846;2022-08-05T00:22:05;10.68;;;4.30;;
37907;SDS011;23740;51.550;6.846;2022-08-05T00:24:30;6.22;;;4.30;;
37907;SDS011;23740;51.550;6.846;2022-08-05T00:26:56;8.82;;;4.50;;
37907;SDS011;23740;51.550;6.846;2022-08-05T00:29:21;8.68;;;3.72;;
37907;SDS011;23740;51.550;6.846;2022-08-05T00:31:47;6.07;;;4.20;;
37907;SDS011;23740;51.550;6.846;2022-08-05T00:34:12;5.25;;;3.45;;
37907;SDS011;23740;51.550;6.846;2022-08-05T00:36:38;8.70;;;4.50;;
37907;SDS011;23740;51.550;6.846;2022-08-05T00:39:04;7.10;;;4.35;;
37907;SDS011;23740;51.550;6.846;2022-08-05T00:41:31;7.68;;;4.10;;
37907;SDS011;23740;51.550;6.846;2022-08-05T00:43:57;7.00;;;4.30;;
37907;SDS011;23740;51.550;6.846;2022-08-05T00:46:23;6.60;;;4.32;;
37907;SDS011;23740;51.550;6.846;2022-08-05T00:48:49;9.82;;;4.22;;
37907;SDS011;23740;51.550;6.846;2022-08-05T00:51:15;6.78;;;4.18;;
37907;SDS011;23740;51.550;6.846;2022-08-05T00:53:41;6.68;;;4.32;;
37907;SDS011;23740;51.550;6.846;2022-08-05T00:56:07;5.70;;;3.63;;
37907;SDS011;23740;51.550;6.846;2022-08-05T00:58:32;7.97;;;4.45;;
37907;SDS011;23740;51.550;6.846;2022-08-05T01:00:58;6.65;;;3.88;;
37907;SDS011;23740;51.550;6.846;2022-08-05T01:03:23;5.38;;;4.05;;
37907;SDS011;23740;51.550;6.846;2022-08-05T01:05:50;5.88;;;4.40;;
37907;SDS011;23740;51.550;6.846;2022-08-05T01:08:17;5.47;;;4.00;;
37907;SDS011;23740;51.550;6.846;2022-08-05T01:13:20;6.50;;;4.65;;
37907;SDS011;23740;51.550;6.846;2022-08-05T01:15:51;7.95;;;4.45;;
37907;SDS011;23740;51.550;6.846;2022-08-05T01:18:24;6.55;;;4.40;;
37907;SDS011;23740;51.550;6.846;2022-08-05T01:23:29;8.00;;;4.68;;
37907;SDS011;23740;51.550;6.846;2022-08-05T01:26:18;7.70;;;4.20;;
37907;SDS011;23740;51.550;6.846;2022-08-05T01:29:02;8.48;;;4.88;;
37907;SDS011;23740;51.550;6.846;2022-08-05T01:31:38;7.85;;;4.35;;
37907;SDS011;23740;51.550;6.846;2022-08-05T01:37:01;10.30;;;5.25;;
37907;SDS011;23740;51.550;6.846;2022-08-05T01:39:28;7.25;;;4.88;;
37907;SDS011;23740;51.550;6.846;2022-08-05T01:41:55;7.78;;;4.60;;
37907;SDS011;23740;51.550;6.846;2022-08-05T01:44:22;5.18;;;4.18;;
37907;SDS011;23740;51.550;6.846;2022-08-05T01:46:49;9.85;;;4.68;;
37907;SDS011;23740;51.550;6.846;2022-08-05T01:49:19;7.47;;;5.10;;
37907;SDS011;23740;51.550;6.846;2022-08-05T01:51:46;6.30;;;4.40;;
37907;SDS011;23740;51.550;6.846;2022-08-05T01:54:13;7.63;;;4.32;;
37907;SDS011;23740;51.550;6.846;2022-08-05T01:56:40;8.32;;;5.22;;
37907;SDS011;23740;51.550;6.846;2022-08-05T01:59:08;8.93;;;4.85;;
37907;SDS011;23740;51.550;6.846;2022-08-05T02:01:36;9.57;;;5.05;;
37907;SDS011;23740;51.550;6.846;2022-08-05T02:04:02;6.78;;;4.50;;
37907;SDS011;23740;51.550;6.846;2022-08-05T02:06:28;6.88;;;4.70;;
37907;SDS011;23740;51.550;6.846;2022-08-05T02:08:54;8.30;;;4.90;;
37907;SDS011;23740;51.550;6.846;2022-08-05T02:11:19;8.15;;;4.53;;
37907;SDS011;23740;51.550;6.846;2022-08-05T02:16:20;8.25;;;5.10;;
37907;SDS011;23740;51.550;6.846;2022-08-05T02:18:52;8.68;;;4.82;;
37907;SDS011;23740;51.550;6.846;2022-08-05T02:21:29;11.07;;;5.20;;
37907;SDS011;23740;51.550;6.846;2022-08-05T02:24:01;7.03;;;4.60;;
37907;SDS011;23740;51.550;6.846;2022-08-05T02:26:34;10.15;;;5.88;;
37907;SDS011;23740;51.550;6.846;2022-08-05T02:29:02;9.57;;;5.32;;
37907;SDS011;23740;51.550;6.846;2022-08-05T02:31:30;10.00;;;4.80;;
37907;SDS011;23740;51.550;6.846;2022-08-05T02:33:58;9.25;;;5.50;;
37907;SDS011;23740;51.550;6.846;2022-08-05T02:36:26;10.88;;;5.35;;
37907;SDS011;23740;51.550;6.846;2022-08-05T02:38:52;9.90;;;4.90;;
37907;SDS011;23740;51.550;6.846;2022-08-05T02:41:20;8.93;;;5.25;;
37907;SDS011;23740;51.550;6.846;2022-08-05T02:43:46;9.25;;;5.20;;
37907;SDS011;23740;51.550;6.846;2022-08-05T02:46:16;8.85;;;5.57;;
37907;SDS011;23740;51.550;6.846;2022-08-05T02:48:42;10.65;;;5.53;;
37907;SDS011;23740;51.550;6.846;2022-08-05T02:51:08;7.65;;;5.50;;
37907;SDS011;23740;51.550;6.846;2022-08-05T02:53:34;9.10;;;4.93;;
37907;SDS011;23740;51.550;6.846;2022-08-05T02:56:02;9.18;;;5.90;;
37907;SDS011;23740;51.550;6.846;2022-08-05T02:58:27;7.93;;;5.70;;
37907;SDS011;23740;51.550;6.846;2022-08-05T03:00:54;7.05;;;5.18;;
37907;SDS011;23740;51.550;6.846;2022-08-05T03:03:20;9.25;;;5.65;;
37907;SDS011;23740;51.550;6.846;2022-08-05T03:05:46;11.38;;;5.85;;
37907;SDS011;23740;51.550;6.846;2022-08-05T03:08:12;8.63;;;5.60;;
37907;SDS011;23740;51.550;6.846;2022-08-05T03:10:40;9.57;;;5.78;;
37907;SDS011;23740;51.550;6.846;2022-08-05T03:13:14;9.73;;;6.38;;
37907;SDS011;23740;51.550;6.846;2022-08-05T03:15:44;10.07;;;6.35;;
37907;SDS011;23740;51.550;6.846;2022-08-05T03:18:10;8.82;;;5.70;;
37907;SDS011;23740;51.550;6.846;2022-08-05T03:20:36;11.18;;;6.05;;
37907;SDS011;23740;51.550;6.846;2022-08-05T03:23:03;13.27;;;6.45;;
37907;SDS011;23740;51.550;6.846;2022-08-05T03:25:29;9.32;;;5.80;;
37907;SDS011;23740;51.550;6.846;2022-08-05T03:27:54;9.82;;;6.07;;
37907;SDS011;23740;51.550;6.846;2022-08-05T03:30:21;8.15;;;5.70;;
37907;SDS011;23740;51.550;6.846;2022-08-05T03:32:47;9.60;;;6.40;;
37907;SDS011;23740;51.550;6.846;2022-08-05T03:35:13;9.32;;;6.38;;
37907;SDS011;23740;51.550;6.846;2022-08-05T03:37:39;9.18;;;6.18;;
37907;SDS011;23740;51.550;6.846;2022-08-05T03:40:05;12.27;;;6.75;;
37907;SDS011;23740;51.550;6.846;2022-08-05T03:42:33;13.02;;;6.63;;
37907;SDS011;23740;51.550;6.846;2022-08-05T03:44:59;11.57;;;5.88;;
37907;SDS011;23740;51.550;6.846;2022-08-05T03:47:25;10.25;;;6.68;;
37907;SDS011;23740;51.550;6.846;2022-08-05T03:49:50;9.85;;;7.22;;
37907;SDS011;23740;51.550;6.846;2022-08-05T03:52:21;10.32;;;7.00;;
37907;SDS011;23740;51.550;6.846;2022-08-05T03:57:22;8.73;;;6.05;;
37907;SDS011;23740;51.550;6.846;2022-08-05T03:59:54;9.45;;;6.18;;
37907;SDS011;23740;51.550;6.846;2022-08-05T04:02:24;10.82;;;6.68;;
37907;SDS011;23740;51.550;6.846;2022-08-05T04:04:52;10.88;;;6.68;;
37907;SDS011;23740;51.550;6.846;2022-08-05T04:07:18;14.02;;;7.38;;
37907;SDS011;23740;51.550;6.846;2022-08-05T04:09:43;11.88;;;8.00;;
37907;SDS011;23740;51.550;6.846;2022-08-05T04:12:09;14.43;;;11.18;;
37907;SDS011;23740;51.550;6.846;2022-08-05T04:14:34;14.95;;;11.32;;
37907;SDS011;23740;51.550;6.846;2022-08-05T04:17:00;11.85;;;8.13;;
37907;SDS011;23740;51.550;6.846;2022-08-05T04:19:26;15.65;;;9.13;;
37907;SDS011;23740;51.550;6.846;2022-08-05T04:21:53;11.65;;;8.30;;
37907;SDS011;23740;51.550;6.846;2022-08-05T04:24:18;12.35;;;8.20;;
37907;SDS011;23740;51.550;6.846;2022-08-05T04:26:44;11.05;;;8.25;;
37907;SDS011;23740;51.550;6.846;2022-08-05T04:29:09;10.85;;;7.97;;
37907;SDS011;23740;51.550;6.846;2022-08-05T04:31:35;14.60;;;9.00;;
37907;SDS011;23740;51.550;6.846;2022-08-05T04:34:00;12.52;;;7.90;;
37907;SDS011;23740;51.550;6.846;2022-08-05T04:36:26;11.15;;;7.75;;
37907;SDS011;23740;51.550;6.846;2022-08-05T04:38:51;11.10;;;7.90;;
37907;SDS011;23740;51.550;6.846;2022-08-05T04:41:19;13.82;;;8.40;;
37907;SDS011;23740;51.550;6.846;2022-08-05T04:43:44;14.20;;;8.10;;
37907;SDS011;23740;51.550;6.846;2022-08-05T04:46:10;11.30;;;8.73;;
37907;SDS011;23740;51.550;6.846;2022-08-05T04:48:35;10.95;;;7.88;;
37907;SDS011;23740;51.550;6.846;2022-08-05T04:51:01;15.00;;;7.97;;
37907;SDS011;23740;51.550;6.846;2022-08-05T04:53:26;11.23;;;7.65;;
37907;SDS011;23740;51.550;6.846;2022-08-05T04:55:52;13.13;;;8.52;;
37907;SDS011;23740;51.550;6.846;2022-08-05T04:58:18;10.15;;;7.47;;
37907;SDS011;23740;51.550;6.846;2022-08-05T05:00:44;11.05;;;7.95;;
37907;SDS011;23740;51.550;6.846;2022-08-05T05:03:09;10.90;;;7.82;;
37907;SDS011;23740;51.550;6.846;2022-08-05T05:05:35;11.05;;;8.00;;
37907;SDS011;23740;51.550;6.846;2022-08-05T05:08:03;12.57;;;8.60;;
37907;SDS011;23740;51.550;6.846;2022-08-05T05:10:30;10.90;;;7.93;;
37907;SDS011;23740;51.550;6.846;2022-08-05T05:12:57;12.30;;;7.82;;
37907;SDS011;23740;51.550;6.846;2022-08-05T05:15:22;13.73;;;8.35;;
37907;SDS011;23740;51.550;6.846;2022-08-05T05:17:49;14.77;;;8.70;;
37907;SDS011;23740;51.550;6.846;2022-08-05T05:20:15;12.30;;;8.63;;
37907;SDS011;23740;51.550;6.846;2022-08-05T05:22:40;15.57;;;8.00;;
37907;SDS011;23740;51.550;6.846;2022-08-05T05:25:06;12.38;;;8.73;;
37907;SDS011;23740;51.550;6.846;2022-08-05T05:27:33;13.40;;;8.32;;
37907;SDS011;23740;51.550;6.846;2022-08-05T05:29:59;9.50;;;7.55;;
37907;SDS011;23740;51.550;6.846;2022-08-05T05:32:25;12.02;;;7.88;;
37907;SDS011;23740;51.550;6.846;2022-08-05T05:34:50;10.38;;;7.25;;
37907;SDS011;23740;51.550;6.846;2022-08-05T05:37:16;13.55;;;7.75;;
37907;SDS011;23740;51.550;6.846;2022-08-05T05:39:41;11.65;;;7.05;;
37907;SDS011;23740;51.550;6.846;2022-08-05T05:42:07;14.77;;;7.75;;
37907;SDS011;23740;51.550;6.846;2022-08-05T05:44:32;17.13;;;12.00;;
37907;SDS011;23740;51.550;6.846;2022-08-05T05:46:58;11.98;;;8.40;;
37907;SDS011;23740;51.550;6.846;2022-08-05T05:49:24;9.63;;;7.38;;
37907;SDS011;23740;51.550;6.846;2022-08-05T05:51:50;12.63;;;7.22;;
37907;SDS011;23740;51.550;6.846;2022-08-05T05:54:15;13.32;;;7.50;;
37907;SDS011;23740;51.550;6.846;2022-08-05T05:56:41;11.30;;;7.10;;
37907;SDS011;23740;51.550;6.846;2022-08-05T05:59:06;12.35;;;7.25;;
37907;SDS011;23740;51.550;6.846;2022-08-05T06:01:32;10.73;;;6.60;;
37907;SDS011;23740;51.550;6.846;2022-08-05T06:04:02;11.98;;;6.80;;
37907;SDS011;23740;51.550;6.846;2022-08-05T06:06:27;8.77;;;7.05;;
37907;SDS011;23740;51.550;6.846;2022-08-05T06:08:53;8.60;;;6.15;;
37907;SDS011;23740;51.550;6.846;2022-08-05T06:11:18;9.40;;;5.68;;
37907;SDS011;23740;51.550;6.846;2022-08-05T06:13:44;10.95;;;5.70;;
37907;SDS011;23740;51.550;6.846;2022-08-05T06:16:09;9.10;;;5.90;;
37907;SDS011;23740;51.550;6.846;2022-08-05T06:18:35;11.48;;;5.63;;
37907;SDS011;23740;51.550;6.846;2022-08-05T06:21:01;12.98;;;5.75;;
37907;SDS011;23740;51.550;6.846;2022-08-05T06:23:27;9.48;;;5.65;;
37907;SDS011;23740;51.550;6.846;2022-08-05T06:25:53;9.57;;;6.18;;
37907;SDS011;23740;51.550;6.846;2022-08-05T06:28:19;10.15;;;6.32;;
37907;SDS011;23740;51.550;6.846;2022-08-05T06:30:44;10.00;;;6.43;;
37907;SDS011;23740;51.550;6.846;2022-08-05T06:33:10;8.60;;;5.68;;
37907;SDS011;23740;51.550;6.846;2022-08-05T06:35:35;9.43;;;5.65;;
37907;SDS011;23740;51.550;6.846;2022-08-05T06:38:01;10.23;;;5.72;;
37907;SDS011;23740;51.550;6.846;2022-08-05T06:40:26;10.80;;;5.82;;
37907;SDS011;23740;51.550;6.846;2022-08-05T06:42:52;12.13;;;5.82;;
37907;SDS011;23740;51.550;6.846;2022-08-05T06:45:17;10.82;;;6.88;;
37907;SDS011;23740;51.550;6.846;2022-08-05T06:47:43;12.85;;;6.05;;
37907;SDS011;23740;51.550;6.846;2022-08-05T06:50:09;8.10;;;5.10;;
37907;SDS011;23740;51.550;6.846;2022-08-05T06:52:34;8.93;;;4.97;;
37907;SDS011;23740;51.550;6.846;2022-08-05T06:55:00;9.13;;;4.95;;
37907;SDS011;23740;51.550;6.846;2022-08-05T06:57:25;8.73;;;5.07;;
37907;SDS011;23740;51.550;6.846;2022-08-05T06:59:51;12.05;;;5.40;;
37907;SDS011;23740;51.550;6.846;2022-08-05T07:02:16;10.90;;;5.30;;
37907;SDS011;23740;51.550;6.846;2022-08-05T07:04:42;13.10;;;5.18;;
37907;SDS011;23740;51.550;6.846;2022-08-05T07:07:07;13.38;;;4.97;;
37907;SDS011;23740;51.550;6.846;2022-08-05T07:09:33;6.50;;;4.50;;
37907;SDS011;23740;51.550;6.846;2022-08-05T07:11:58;8.27;;;5.05;;
37907;SDS011;23740;51.550;6.846;2022-08-05T07:14:24;13.18;;;4.25;;
37907;SDS011;23740;51.550;6.846;2022-08-05T07:17:08;7.65;;;4.97;;
37907;SDS011;23740;51.550;6.846;2022-08-05T07:19:33;6.75;;;5.10;;
37907;SDS011;23740;51.550;6.846;2022-08-05T07:21:59;10.18;;;5.55;;
37907;SDS011;23740;51.550;6.846;2022-08-05T07:24:24;9.50;;;5.20;;
37907;SDS011;23740;51.550;6.846;2022-08-05T07:26:50;9.35;;;4.55;;
37907;SDS011;23740;51.550;6.846;2022-08-05T07:29:15;6.00;;;3.85;;
37907;SDS011;23740;51.550;6.846;2022-08-05T07:31:41;9.23;;;4.75;;
37907;SDS011;23740;51.550;6.846;2022-08-05T07:34:07;5.88;;;4.25;;
37907;SDS011;23740;51.550;6.846;2022-08-05T07:36:32;9.13;;;4.47;;
37907;SDS011;23740;51.550;6.846;2022-08-05T07:39:02;5.40;;;3.97;;
37907;SDS011;23740;51.550;6.846;2022-08-05T07:41:30;7.78;;;4.18;;
37907;SDS011;23740;51.550;6.846;2022-08-05T07:44:05;10.30;;;4.25;;
37907;SDS011;23740;51.550;6.846;2022-08-05T07:46:31;9.43;;;4.47;;
37907;SDS011;23740;51.550;6.846;2022-08-05T07:48:57;6.03;;;4.32;;
37907;SDS011;23740;51.550;6.846;2022-08-05T07:51:24;7.60;;;4.97;;
37907;SDS011;23740;51.550;6.846;2022-08-05T07:53:49;6.72;;;3.92;;
37907;SDS011;23740;51.550;6.846;2022-08-05T07:56:15;11.55;;;4.10;;
37907;SDS011;23740;51.550;6.846;2022-08-05T07:58:40;6.60;;;3.72;;
37907;SDS011;23740;51.550;6.846;2022-08-05T08:01:06;11.07;;;4.20;;
37907;SDS011;23740;51.550;6.846;2022-08-05T08:03:31;8.00;;;3.70;;
37907;SDS011;23740;51.550;6.846;2022-08-05T08:05:57;7.82;;;3.90;;
37907;SDS011;23740;51.550;6.846;2022-08-05T08:08:22;9.48;;;4.07;;
37907;SDS011;23740;51.550;6.846;2022-08-05T08:10:48;7.85;;;4.00;;
37907;SDS011;23740;51.550;6.846;2022-08-05T08:13:13;5.72;;;3.70;;
37907;SDS011;23740;51.550;6.846;2022-08-05T08:15:39;6.38;;;3.60;;
37907;SDS011;23740;51.550;6.846;2022-08-05T08:18:04;9.52;;;3.42;;
37907;SDS011;23740;51.550;6.846;2022-08-05T08:20:30;6.75;;;3.67;;
37907;SDS011;23740;51.550;6.846;2022-08-05T08:22:57;4.82;;;3.78;;
37907;SDS011;23740;51.550;6.846;2022-08-05T08:25:25;8.73;;;3.72;;
37907;SDS011;23740;51.550;6.846;2022-08-05T08:27:52;6.32;;;3.53;;
37907;SDS011;23740;51.550;6.846;2022-08-05T08:30:18;6.57;;;3.45;;
37907;SDS011;23740;51.550;6.846;2022-08-05T08:32:43;5.88;;;3.90;;
37907;SDS011;23740;51.550;6.846;2022-08-05T08:35:09;5.80;;;3.45;;
37907;SDS011;23740;51.550;6.846;2022-08-05T08:37:34;8.10;;;3.50;;
37907;SDS011;23740;51.550;6.846;2022-08-05T08:39:59;8.75;;;3.65;;
37907;SDS011;23740;51.550;6.846;2022-08-05T08:42:25;6.15;;;3.45;;
37907;SDS011;23740;51.550;6.846;2022-08-05T08:44:54;7.03;;;3.85;;
37907;SDS011;23740;51.550;6.846;2022-08-05T08:47:24;7.18;;;3.75;;
37907;SDS011;23740;51.550;6.846;2022-08-05T08:49:51;6.95;;;3.88;;
37907;SDS011;23740;51.550;6.846;2022-08-05T08:52:22;8.35;;;4.05;;
37907;SDS011;23740;51.550;6.846;2022-08-05T08:54:50;11.00;;;4.43;;
37907;SDS011;23740;51.550;6.846;2022-08-05T08:57:16;7.30;;;3.95;;
37907;SDS011;23740;51.550;6.846;2022-08-05T08:59:42;7.45;;;4.15;;
37907;SDS011;23740;51.550;6.846;2022-08-05T09:02:08;7.35;;;4.10;;
37907;SDS011;23740;51.550;6.846;2022-08-05T09:04:35;8.25;;;4.00;;
37907;SDS011;23740;51.550;6.846;2022-08-05T09:07:04;6.03;;;3.55;;
37907;SDS011;23740;51.550;6.846;2022-08-05T09:09:31;7.38;;;3.95;;
37907;SDS011;23740;51.550;6.846;2022-08-05T09:12:00;5.50;;;3.25;;
37907;SDS011;23740;51.550;6.846;2022-08-05T09:14:33;5.15;;;3.58;;
37907;SDS011;23740;51.550;6.846;2022-08-05T09:16:59;7.75;;;3.85;;
37907;SDS011;23740;51.550;6.846;2022-08-05T09:19:28;7.80;;;4.18;;
37907;SDS011;23740;51.550;6.846;2022-08-05T09:21:55;9.45;;;4.20;;
37907;SDS011;23740;51.550;6.846;2022-08-05T09:24:21;6.05;;;3.88;;
37907;SDS011;23740;51.550;6.846;2022-08-05T09:26:48;6.03;;;3.83;;
37907;SDS011;23740;51.550;6.846;2022-08-05T09:29:14;6.68;;;3.60;;
37907;SDS011;23740;51.550;6.846;2022-08-05T09:31:40;7.80;;;4.35;;
37907;SDS011;23740;51.550;6.846;2022-08-05T09:34:08;6.28;;;3.78;;
37907;SDS011;23740;51.550;6.846;2022-08-05T09:36:39;5.68;;;4.05;;
37907;SDS011;23740;51.550;6.846;2022-08-05T09:39:07;5.65;;;4.00;;
37907;SDS011;23740;51.550;6.846;2022-08-05T09:41:34;7.18;;;3.90;;
37907;SDS011;23740;51.550;6.846;2022-08-05T09:44:31;7.55;;;3.70;;
37907;SDS011;23740;51.550;6.846;2022-08-05T09:49:35;8.52;;;3.60;;
37907;SDS011;23740;51.550;6.846;2022-08-05T09:57:30;7.30;;;3.10;;
37907;SDS011;23740;51.550;6.846;2022-08-05T09:59:57;8.15;;;3.58;;
37907;SDS011;23740;51.550;6.846;2022-08-05T10:02:30;6.30;;;2.97;;
37907;SDS011;23740;51.550;6.846;2022-08-05T10:05:02;3.35;;;2.45;;
37907;SDS011;23740;51.550;6.846;2022-08-05T10:07:41;5.18;;;2.95;;
37907;SDS011;23740;51.550;6.846;2022-08-05T10:10:08;6.82;;;3.10;;
37907;SDS011;23740;51.550;6.846;2022-08-05T10:12:43;6.03;;;2.90;;
37907;SDS011;23740;51.550;6.846;2022-08-05T10:15:20;5.68;;;2.95;;
37907;SDS011;23740;51.550;6.846;2022-08-05T10:23:11;5.75;;;2.80;;
37907;SDS011;23740;51.550;6.846;2022-08-05T10:25:39;6.20;;;2.90;;
37907;SDS011;23740;51.550;6.846;2022-08-05T10:28:05;7.32;;;2.95;;
37907;SDS011;23740;51.550;6.846;2022-08-05T10:30:31;5.63;;;2.95;;
37907;SDS011;23740;51.550;6.846;2022-08-05T10:32:57;7.72;;;3.47;;
37907;SDS011;23740;51.550;6.846;2022-08-05T10:35:23;4.38;;;2.50;;
37907;SDS011;23740;51.550;6.846;2022-08-05T10:37:49;7.22;;;2.90;;
37907;SDS011;23740;51.550;6.846;2022-08-05T10:40:17;4.10;;;2.58;;
37907;SDS011;23740;51.550;6.846;2022-08-05T10:42:50;4.72;;;2.38;;
37907;SDS011;23740;51.550;6.846;2022-08-05T10:45:22;3.78;;;2.30;;
37907;SDS011;23740;51.550;6.846;2022-08-05T10:47:50;5.70;;;2.45;;
37907;SDS011;23740;51.550;6.846;2022-08-05T10:50:15;4.75;;;2.20;;
37907;SDS011;23740;51.550;6.846;2022-08-05T10:52:43;3.08;;;1.73;;
37907;SDS011;23740;51.550;6.846;2022-08-05T10:55:18;2.33;;;1.83;;
37907;SDS011;23740;51.550;6.846;2022-08-05T10:57:44;3.42;;;2.03;;
37907;SDS011;23740;51.550;6.846;2022-08-05T11:00:12;3.13;;;2.00;;
37907;SDS011;23740;51.550;6.846;2022-08-05T11:05:34;3.33;;;2.30;;
37907;SDS011;23740;51.550;6.846;2022-08-05T11:08:05;6.80;;;2.92;;
37907;SDS011;23740;51.550;6.846;2022-08-05T11:10:33;5.65;;;3.08;;
37907;SDS011;23740;51.550;6.846;2022-08-05T11:13:01;5.22;;;2.83;;
37907;SDS011;23740;51.550;6.846;2022-08-05T11:15:30;6.93;;;3.33;;
37907;SDS011;23740;51.550;6.846;2022-08-05T11:20:53;4.63;;;2.80;;
37907;SDS011;23740;51.550;6.846;2022-08-05T11:26:04;5.28;;;3.03;;
37907;SDS011;23740;51.550;6.846;2022-08-05T11:33:27;4.38;;;3.10;;
37907;SDS011;23740;51.550;6.846;2022-08-05T11:35:56;5.63;;;3.30;;
37907;SDS011;23740;51.550;6.846;2022-08-05T11:41:06;4.93;;;3.00;;
37907;SDS011;23740;51.550;6.846;2022-08-05T11:43:57;3.45;;;3.00;;
37907;SDS011;23740;51.550;6.846;2022-08-05T11:46:30;4.43;;;3.03;;
37907;SDS011;23740;51.550;6.846;2022-08-05T11:48:57;6.32;;;3.20;;
37907;SDS011;23740;51.550;6.846;2022-08-05T11:51:23;5.90;;;2.78;;
37907;SDS011;23740;51.550;6.846;2022-08-05T11:53:49;4.40;;;2.70;;
37907;SDS011;23740;51.550;6.846;2022-08-05T11:56:15;4.18;;;2.90;;
37907;SDS011;23740;51.550;6.846;2022-08-05T11:58:41;7.43;;;3.08;;
37907;SDS011;23740;51.550;6.846;2022-08-05T12:01:15;4.57;;;2.80;;
37907;SDS011;23740;51.550;6.846;2022-08-05T12:03:43;4.47;;;2.50;;
37907;SDS011;23740;51.550;6.846;2022-08-05T12:06:10;4.72;;;3.08;;
37907;SDS011;23740;51.550;6.846;2022-08-05T12:11:05;8.73;;;3.10;;
37907;SDS011;23740;51.550;6.846;2022-08-05T12:13:32;6.68;;;3.15;;
37907;SDS011;23740;51.550;6.846;2022-08-05T12:15:59;6.32;;;3.10;;
37907;SDS011;23740;51.550;6.846;2022-08-05T12:18:31;6.10;;;3.05;;
37907;SDS011;23740;51.550;6.846;2022-08-05T12:21:10;5.30;;;2.92;;
37907;SDS011;23740;51.550;6.846;2022-08-05T12:26:20;5.70;;;2.83;;
37907;SDS011;23740;51.550;6.846;2022-08-05T12:28:46;5.32;;;2.30;;
37907;SDS011;23740;51.550;6.846;2022-08-05T12:31:11;5.45;;;3.08;;
37907;SDS011;23740;51.550;6.846;2022-08-05T12:33:37;5.20;;;2.60;;
37907;SDS011;23740;51.550;6.846;2022-08-05T12:36:03;5.40;;;3.10;;
37907;SDS011;23740;51.550;6.846;2022-08-05T12:38:30;6.05;;;2.95;;
37907;SDS011;23740;51.550;6.846;2022-08-05T12:40:56;4.65;;;3.35;;
37907;SDS011;23740;51.550;6.846;2022-08-05T12:43:21;5.70;;;2.83;;
37907;SDS011;23740;51.550;6.846;2022-08-05T12:45:53;4.45;;;2.47;;
37907;SDS011;23740;51.550;6.846;2022-08-05T12:48:20;6.15;;;2.83;;
37907;SDS011;23740;51.550;6.846;2022-08-05T12:53:41;3.47;;;2.13;;
37907;SDS011;23740;51.550;6.846;2022-08-05T12:56:17;2.80;;;2.20;;
37907;SDS011;23740;51.550;6.846;2022-08-05T12:59:09;5.45;;;2.22;;
37907;SDS011;23740;51.550;6.846;2022-08-05T13:01:42;3.20;;;1.90;;
37907;SDS011;23740;51.550;6.846;2022-08-05T13:04:09;2.65;;;2.17;;
37907;SDS011;23740;51.550;6.846;2022-08-05T13:06:41;5.38;;;2.35;;
37907;SDS011;23740;51.550;6.846;2022-08-05T13:09:11;3.78;;;2.10;;
37907;SDS011;23740;51.550;6.846;2022-08-05T13:11:38;2.63;;;1.50;;
37907;SDS011;23740;51.550;6.846;2022-08-05T13:14:09;3.22;;;1.60;;
37907;SDS011;23740;51.550;6.846;2022-08-05T13:16:49;10.32;;;2.10;;
37907;SDS011;23740;51.550;6.846;2022-08-05T13:19:15;2.05;;;1.15;;
37907;SDS011;23740;51.550;6.846;2022-08-05T13:21:44;1.65;;;1.30;;
37907;SDS011;23740;51.550;6.846;2022-08-05T13:24:11;2.28;;;1.73;;
37907;SDS011;23740;51.550;6.846;2022-08-05T13:26:36;3.15;;;1.40;;
37907;SDS011;23740;51.550;6.846;2022-08-05T13:29:02;3.22;;;1.55;;
37907;SDS011;23740;51.550;6.846;2022-08-05T13:31:28;2.20;;;1.42;;
37907;SDS011;23740;51.550;6.846;2022-08-05T13:33:53;2.28;;;1.40;;
37907;SDS011;23740;51.550;6.846;2022-08-05T13:36:19;4.97;;;1.48;;
37907;SDS011;23740;51.550;6.846;2022-08-05T13:38:44;3.60;;;1.35;;
37907;SDS011;23740;51.550;6.846;2022-08-05T13:41:09;7.65;;;2.63;;
37907;SDS011;23740;51.550;6.846;2022-08-05T13:43:35;3.58;;;1.65;;
37907;SDS011;23740;51.550;6.846;2022-08-05T13:46:01;3.83;;;1.52;;
37907;SDS011;23740;51.550;6.846;2022-08-05T13:48:26;1.50;;;1.40;;
37907;SDS011;23740;51.550;6.846;2022-08-05T13:50:51;4.93;;;1.63;;
37907;SDS011;23740;51.550;6.846;2022-08-05T13:53:17;4.20;;;1.83;;
37907;SDS011;23740;51.550;6.846;2022-08-05T13:55:42;1.33;;;1.05;;
37907;SDS011;23740;51.550;6.846;2022-08-05T13:58:08;2.30;;;1.15;;
37907;SDS011;23740;51.550;6.846;2022-08-05T14:00:33;1.80;;;1.23;;
37907;SDS011;23740;51.550;6.846;2022-08-05T14:03:00;1.55;;;1.08;;
37907;SDS011;23740;51.550;6.846;2022-08-05T14:05:26;2.33;;;1.10;;
37907;SDS011;23740;51.550;6.846;2022-08-05T14:07:51;1.60;;;0.95;;
37907;SDS011;23740;51.550;6.846;2022-08-05T14:12:48;1.27;;;0.93;;
37907;SDS011;23740;51.550;6.846;2022-08-05T14:15:15;3.40;;;0.90;;
37907;SDS011;23740;51.550;6.846;2022-08-05T14:17:41;1.73;;;0.77;;
37907;SDS011;23740;51.550;6.846;2022-08-05T14:20:06;6.00;;;0.80;;
37907;SDS011;23740;51.550;6.846;2022-08-05T14:22:32;1.15;;;0.50;;
37907;SDS011;23740;51.550;6.846;2022-08-05T14:24:58;3.60;;;0.95;;
37907;SDS011;23740;51.550;6.846;2022-08-05T14:27:24;2.03;;;0.60;;
37907;SDS011;23740;51.550;6.846;2022-08-05T14:29:49;4.22;;;0.85;;
37907;SDS011;23740;51.550;6.846;2022-08-05T14:32:15;2.85;;;0.60;;
37907;SDS011;23740;51.550;6.846;2022-08-05T14:34:40;3.90;;;0.90;;
37907;SDS011;23740;51.550;6.846;2022-08-05T14:37:06;1.27;;;0.50;;
37907;SDS011;23740;51.550;6.846;2022-08-05T14:39:32;4.15;;;2.33;;
37907;SDS011;23740;51.550;6.846;2022-08-05T14:41:58;1.88;;;1.15;;
37907;SDS011;23740;51.550;6.846;2022-08-05T14:44:23;3.53;;;0.70;;
37907;SDS011;23740;51.550;6.846;2022-08-05T14:46:48;1.30;;;0.77;;
37907;SDS011;23740;51.550;6.846;2022-08-05T14:49:14;2.80;;;0.93;;
37907;SDS011;23740;51.550;6.846;2022-08-05T14:51:39;1.02;;;0.70;;
37907;SDS011;23740;51.550;6.846;2022-08-05T14:54:05;2.50;;;1.17;;
37907;SDS011;23740;51.550;6.846;2022-08-05T14:56:31;1.45;;;0.88;;
37907;SDS011;23740;51.550;6.846;2022-08-05T14:58:57;1.35;;;0.82;;
37907;SDS011;23740;51.550;6.846;2022-08-05T15:01:22;1.65;;;0.50;;
37907;SDS011;23740;51.550;6.846;2022-08-05T15:03:48;0.80;;;0.70;;
37907;SDS011;23740;51.550;6.846;2022-08-05T15:06:13;1.65;;;1.02;;
37907;SDS011;23740;51.550;6.846;2022-08-05T15:08:42;1.48;;;0.70;;
37907;SDS011;23740;51.550;6.846;2022-08-05T15:11:08;1.80;;;0.85;;
37907;SDS011;23740;51.550;6.846;2022-08-05T15:13:34;1.27;;;0.77;;
37907;SDS011;23740;51.550;6.846;2022-08-05T15:16:00;1.35;;;0.85;;
37907;SDS011;23740;51.550;6.846;2022-08-05T15:18:26;0.85;;;0.70;;
37907;SDS011;23740;51.550;6.846;2022-08-05T15:20:51;2.25;;;0.77;;
37907;SDS011;23740;51.550;6.846;2022-08-05T15:23:17;1.20;;;0.75;;
37907;SDS011;23740;51.550;6.846;2022-08-05T15:25:43;0.65;;;0.65;;
37907;SDS011;23740;51.550;6.846;2022-08-05T15:28:08;1.20;;;0.77;;
37907;SDS011;23740;51.550;6.846;2022-08-05T15:30:34;1.60;;;0.70;;
37907;SDS011;23740;51.550;6.846;2022-08-05T15:33:01;2.38;;;0.98;;
37907;SDS011;23740;51.550;6.846;2022-08-05T15:35:27;1.33;;;0.73;;
37907;SDS011;23740;51.550;6.846;2022-08-05T15:37:53;1.65;;;0.40;;